| time (UTC) | temp F | wind direction | speed MPH | gust MPH | rain 1hr in | rain 24hr in | rain mn in | humidity % | barometer mb |
| 20260904052422 | 60 | 314 | 1.0 | 4.0 | 0.00 | 0.11 | 0.11 | 95 | 1013.7 |
| 20260904051416 | 60 | 279 | 2.0 | 5.0 | 0.00 | 0.11 | 0.11 | 95 | 1013.8 |
| 20260904050428 | 60 | 310 | 0.0 | 1.0 | 0.00 | 0.11 | 0.11 | 95 | 1013.8 |
| 20260904045419 | 60 | 310 | 0.0 | 0.0 | 0.00 | 0.11 | 0.11 | 95 | 1013.9 |
| 20260904044437 | 60 | 310 | 0.0 | 5.0 | 0.00 | 0.11 | 0.11 | 95 | 1014.0 |
| 20260904043430 | 60 | 315 | 1.0 | 4.0 | 0.00 | 0.11 | 0.11 | 95 | 1013.9 |
| 20260904042424 | 60 | 319 | 1.0 | 5.0 | 0.00 | 0.11 | 0.11 | 95 | 1013.8 |
| 20260904041418 | 60 | 310 | 1.0 | 4.0 | 0.00 | 0.11 | 0.11 | 95 | 1013.7 |
| 20260904040436 | 60 | 287 | 1.0 | 6.0 | 0.00 | 0.11 | 0.11 | 95 | 1013.7 |
| 20260904035447 | 60 | 301 | 2.0 | 6.0 | 0.00 | 0.11 | 0.11 | 95 | 1013.7 |
| 20260904034439 | 60 | 296 | 4.0 | 9.0 | 0.00 | 0.11 | 0.11 | 95 | 1013.7 |
| 20260904033432 | 60 | 299 | 3.0 | 9.0 | 0.00 | 0.11 | 0.11 | 95 | 1013.5 |
| 20260904032429 | 60 | 315 | 1.0 | 5.0 | 0.00 | 0.11 | 0.11 | 95 | 1013.4 |
| 20260904031423 | 60 | 309 | 1.0 | 5.0 | 0.00 | 0.11 | 0.11 | 95 | 1013.4 |
| 20260904030417 | 60 | 317 | 0.0 | 6.0 | 0.00 | 0.11 | 0.11 | 95 | 1013.4 |
| 20260904025429 | 60 | 306 | 1.0 | 3.0 | 0.00 | 0.11 | 0.11 | 95 | 1013.5 |
| 20260904024446 | 60 | 289 | 0.0 | 3.0 | 0.00 | 0.11 | 0.11 | 95 | 1013.4 |
| 20260904023418 | 60 | 303 | 0.0 | 2.0 | 0.00 | 0.11 | 0.11 | 95 | 1013.3 |
| 20260904022453 | 60 | 272 | 0.0 | 0.0 | 0.00 | 0.11 | 0.11 | 95 | 1013.4 |
| 20260904021424 | 60 | 272 | 0.0 | 0.0 | 0.00 | 0.11 | 0.11 | 95 | 1013.4 |
| 20260904020422 | 60 | 272 | 0.0 | 1.0 | 0.00 | 0.11 | 0.11 | 95 | 1013.6 |
| 20260904015414 | 61 | 271 | 0.0 | 0.0 | 0.00 | 0.11 | 0.11 | 95 | 1013.7 |
| 20260904014446 | 60 | 271 | 0.0 | 1.0 | 0.00 | 0.11 | 0.11 | 95 | 1013.8 |
| 20260904013422 | 60 | 271 | 0.0 | 2.0 | 0.00 | 0.11 | 0.11 | 95 | 1013.7 |
| 20260904012416 | 61 | 312 | 0.0 | 1.0 | 0.00 | 0.11 | 0.11 | 95 | 1013.9 |
| 20260904011448 | 61 | 313 | 0.0 | 1.0 | 0.00 | 0.11 | 0.11 | 95 | 1013.9 |
| 20260904010421 | 61 | 313 | 0.0 | 1.0 | 0.00 | 0.11 | 0.11 | 95 | 1014.0 |
| 20260904005416 | 61 | 314 | 0.0 | 1.0 | 0.00 | 0.11 | 0.11 | 95 | 1013.9 |
| 20260904004429 | 61 | 314 | 0.0 | 1.0 | 0.01 | 0.11 | 0.11 | 95 | 1014.0 |
| 20260904003441 | 61 | 314 | 0.0 | 1.0 | 0.01 | 0.11 | 0.11 | 95 | 1014.0 |
| 20260904002453 | 61 | 314 | 0.0 | 2.0 | 0.01 | 0.11 | 0.11 | 95 | 1014.0 |
| 20260904001443 | 61 | 314 | 0.0 | 5.0 | 0.01 | 0.11 | 0.11 | 95 | 1014.3 |
| 20260904000440 | 61 | 312 | 4.0 | 6.0 | 0.01 | 0.11 | 0.11 | 94 | 1014.3 |
| 20260903235428 | 61 | 319 | 1.0 | 2.0 | 0.01 | 0.11 | 0.11 | 94 | 1014.4 |
| 20260903234420 | 62 | 319 | 2.0 | 6.0 | 0.00 | 0.10 | 0.10 | 94 | 1014.5 |
| 20260903233454 | 62 | 317 | 2.0 | 6.0 | 0.00 | 0.10 | 0.10 | 93 | 1014.5 |
| 20260903232431 | 62 | 287 | 3.0 | 5.0 | 0.00 | 0.10 | 0.10 | 95 | 1014.5 |
| 20260903231445 | 62 | 312 | 2.0 | 4.0 | 0.00 | 0.10 | 0.10 | 95 | 1014.6 |
| 20260903230439 | 62 | 297 | 1.0 | 5.0 | 0.00 | 0.10 | 0.10 | 95 | 1014.7 |
| 20260903225450 | 62 | 262 | 3.0 | 7.0 | 0.00 | 0.10 | 0.10 | 95 | 1014.7 |
| 20260903224427 | 63 | 289 | 1.0 | 7.0 | 0.00 | 0.10 | 0.10 | 95 | 1014.8 |
| 20260903223421 | 62 | 315 | 4.0 | 12.0 | 0.00 | 0.10 | 0.10 | 95 | 1014.8 |
| 20260903222415 | 62 | 300 | 6.0 | 11.0 | 0.00 | 0.10 | 0.10 | 95 | 1014.9 |
| 20260903221427 | 62 | 336 | 5.0 | 13.0 | 0.00 | 0.10 | 0.10 | 95 | 1014.9 |
| 20260903220426 | 62 | 348 | 6.0 | 9.0 | 0.00 | 0.10 | 0.10 | 95 | 1015.0 |
| 20260903215418 | 63 | 296 | 6.0 | 11.0 | 0.00 | 0.10 | 0.10 | 94 | 1014.9 |
| 20260903214451 | 64 | 237 | 4.0 | 10.0 | 0.00 | 0.10 | 0.10 | 95 | 1014.8 |
| 20260903213427 | 64 | 303 | 3.0 | 9.0 | 0.00 | 0.10 | 0.10 | 95 | 1014.8 |
| 20260903212419 | 64 | 320 | 4.0 | 10.0 | 0.00 | 0.10 | 0.10 | 95 | 1014.9 |
| 20260903211413 | 64 | 293 | 3.0 | 9.0 | 0.00 | 0.10 | 0.10 | 95 | 1014.8 |
| 20260903210449 | 65 | 357 | 3.0 | 9.0 | 0.00 | 0.10 | 0.10 | 95 | 1015.0 |
| 20260903205424 | 65 | 293 | 3.0 | 9.0 | 0.00 | 0.10 | 0.10 | 95 | 1014.9 |
| 20260903204417 | 65 | 307 | 2.0 | 8.0 | 0.00 | 0.10 | 0.10 | 96 | 1015.0 |
| 20260903203432 | 65 | 327 | 1.0 | 7.0 | 0.00 | 0.10 | 0.10 | 96 | 1015.1 |
| 20260903202425 | 64 | 275 | 3.0 | 7.0 | 0.00 | 0.10 | 0.10 | 96 | 1015.1 |
| 20260903201421 | 64 | 312 | 1.0 | 7.0 | 0.00 | 0.10 | 0.10 | 96 | 1015.3 |
| 20260903200453 | 63 | 310 | 2.0 | 11.0 | 0.00 | 0.10 | 0.10 | 96 | 1015.4 |
| 20260903195425 | 63 | 334 | 5.0 | 10.0 | 0.00 | 0.10 | 0.10 | 96 | 1015.5 |
| 20260903194422 | 63 | 310 | 5.0 | 8.0 | 0.00 | 0.10 | 0.10 | 96 | 1015.5 |
| 20260903193437 | 63 | 268 | 5.0 | 11.0 | 0.00 | 0.10 | 0.10 | 96 | 1015.6 |
| 20260903192429 | 63 | 322 | 1.0 | 11.0 | 0.01 | 0.10 | 0.10 | 96 | 1015.6 |
| 20260903191422 | 63 | 299 | 6.0 | 13.0 | 0.01 | 0.10 | 0.10 | 96 | 1015.8 |
| 20260903190421 | 63 | 322 | 4.0 | 10.0 | 0.03 | 0.10 | 0.10 | 96 | 1015.8 |
| 20260903185414 | 63 | 305 | 1.0 | 8.0 | 0.05 | 0.10 | 0.10 | 96 | 1015.9 |
| 20260903184427 | 63 | 297 | 0.0 | 6.0 | 0.07 | 0.10 | 0.10 | 96 | 1015.9 |
| 20260903183422 | 63 | 335 | 1.0 | 7.0 | 0.09 | 0.10 | 0.10 | 96 | 1015.8 |
| 20260903182420 | 62 | 228 | 1.0 | 3.0 | 0.09 | 0.09 | 0.09 | 96 | 1015.9 |
| 20260903181432 | 62 | 279 | 0.0 | 2.0 | 0.09 | 0.09 | 0.09 | 96 | 1016.0 |
| 20260903180444 | 62 | 233 | 0.0 | 2.0 | 0.07 | 0.07 | 0.07 | 96 | 1015.8 |
| 20260903175453 | 62 | 247 | 0.0 | 2.0 | 0.05 | 0.05 | 0.05 | 96 | 1015.7 |
| 20260903103419 | 60 | 316 | 0.0 | 1.0 | 0.00 | 0.01 | 0.00 | 94 | 1016.9 |
| 20260903102431 | 60 | 316 | 0.0 | 1.0 | 0.00 | 0.01 | 0.00 | 94 | 1016.8 |
| 20260903101422 | 60 | 316 | 0.0 | 1.0 | 0.00 | 0.01 | 0.00 | 94 | 1016.9 |
| 20260903100415 | 61 | 316 | 0.0 | 0.0 | 0.00 | 0.01 | 0.00 | 94 | 1017.0 |
| 20260903095431 | 60 | 316 | 0.0 | 0.0 | 0.00 | 0.01 | 0.00 | 94 | 1017.0 |
| 20260903094425 | 60 | 316 | 0.0 | 0.0 | 0.00 | 0.01 | 0.00 | 94 | 1017.1 |
| 20260903093420 | 60 | 316 | 0.0 | 0.0 | 0.00 | 0.01 | 0.00 | 94 | 1017.1 |
| 20260903092417 | 60 | 316 | 0.0 | 0.0 | 0.00 | 0.01 | 0.00 | 94 | 1017.3 |
| 20260903091430 | 60 | 316 | 0.0 | 0.0 | 0.00 | 0.01 | 0.00 | 94 | 1017.4 |
| 20260903090424 | 60 | 316 | 0.0 | 0.0 | 0.00 | 0.01 | 0.00 | 94 | 1017.5 |
| 20260903085416 | 60 | 316 | 0.0 | 1.0 | 0.00 | 0.01 | 0.00 | 94 | 1017.5 |
| 20260903084453 | 60 | 316 | 0.0 | 1.0 | 0.00 | 0.01 | 0.00 | 94 | 1017.5 |
| 20260903083445 | 60 | 316 | 0.0 | 1.0 | 0.00 | 0.01 | 0.00 | 94 | 1017.7 |
| 20260903082415 | 60 | 316 | 0.0 | 1.0 | 0.00 | 0.01 | 0.00 | 94 | 1017.6 |
| 20260903081427 | 60 | 316 | 0.0 | 1.0 | 0.00 | 0.01 | 0.00 | 94 | 1017.6 |
| 20260903080424 | 60 | 316 | 0.0 | 2.0 | 0.00 | 0.01 | 0.00 | 94 | 1017.7 |
| 20260903075415 | 60 | 316 | 0.0 | 1.0 | 0.00 | 0.01 | 0.00 | 94 | 1017.6 |
| 20260903074427 | 60 | 316 | 0.0 | 1.0 | 0.00 | 0.01 | 0.00 | 94 | 1017.7 |
| 20260903073421 | 60 | 316 | 0.0 | 1.0 | 0.00 | 0.01 | 0.00 | 94 | 1017.7 |
| 20260903072417 | 60 | 316 | 0.0 | 2.0 | 0.00 | 0.01 | 0.00 | 94 | 1017.8 |
| 20260903071429 | 60 | 316 | 0.0 | 2.0 | 0.00 | 0.01 | 0.00 | 94 | 1017.9 |
| 20260903070420 | 60 | 316 | 0.0 | 2.0 | 0.00 | 0.01 | 0.00 | 94 | 1018.0 |
| 20260903065419 | 60 | 316 | 1.0 | 2.0 | 0.00 | 0.01 | 0.01 | 94 | 1018.0 |
| 20260903064432 | 60 | 316 | 0.0 | 0.0 | 0.00 | 0.01 | 0.01 | 94 | 1017.9 |
| 20260903063426 | 60 | 316 | 0.0 | 0.0 | 0.00 | 0.01 | 0.01 | 94 | 1018.1 |
| 20260903062421 | 60 | 316 | 0.0 | 0.0 | 0.00 | 0.01 | 0.01 | 94 | 1018.2 |
| 20260903061438 | 60 | 316 | 0.0 | 0.0 | 0.00 | 0.01 | 0.01 | 94 | 1018.1 |
| 20260903060430 | 60 | 316 | 0.0 | 0.0 | 0.00 | 0.01 | 0.01 | 94 | 1018.2 |
| 20260903055422 | 60 | 316 | 0.0 | 0.0 | 0.00 | 0.01 | 0.01 | 94 | 1018.2 |
| 20260903054420 | 60 | 316 | 0.0 | 1.0 | 0.00 | 0.01 | 0.01 | 94 | 1018.4 |
| 20260903053453 | 60 | 316 | 0.0 | 0.0 | 0.00 | 0.01 | 0.01 | 94 | 1018.4 |